Doncaster, United Kingdom
Current Conditions -  °F | °C
As of 4:20 AM on Thursday 29 Jan 2015 (Local Time) from EGCN Reporting Station
Scattered Clouds Scattered Clouds  
Wind Chill: 27°   Ceiling: Unl
Heat Index: 37°   Visibility: 4mi
Dew Point: 32°   Wind: 18mph
Humidity: 81%   Direction: 230°SW
Pressure: 29.15"   Gusts: NA
Location:  53.52°N, 1.13°W
Report Text: EGCN 290420Z 23016KT 7000 FEW014 SCT033 03/00 Q0987
Loading
Personal Weather Stations






























Interactive Weather Map New forecast layout! Learn more

10-Day Weather Forecast

Advertisements
Track Severe Weather on mobile